createdAt,value
2023-03-06T00:01:08.586Z,62.33
2023-03-06T00:03:35.298Z,64.69
2023-03-06T00:06:02.215Z,67.52
2023-03-06T00:08:29.618Z,69.29
2023-03-06T00:10:56.888Z,67.13
2023-03-06T00:13:24.113Z,64.83
2023-03-06T00:15:50.711Z,63.23
2023-03-06T00:18:20.371Z,62.69
2023-03-06T00:20:47.205Z,62.02
2023-03-06T00:23:13.908Z,63.55
2023-03-06T00:25:44.842Z,64.15
2023-03-06T00:28:12.378Z,65.41
2023-03-06T00:30:39.199Z,65.57
2023-03-06T00:33:05.809Z,65.72
2023-03-06T00:35:32.549Z,63.53
2023-03-06T00:37:59.900Z,64.93
2023-03-06T00:40:27.032Z,66.09
2023-03-06T00:42:53.648Z,65.65
2023-03-06T00:45:20.500Z,65.25
2023-03-06T00:47:47.213Z,63.03
2023-03-06T00:50:13.894Z,63.43
2023-03-06T00:52:41.995Z,64.72
2023-03-06T00:55:09.468Z,63.95
2023-03-06T00:57:36.046Z,64.78
2023-03-06T01:00:06.384Z,65.58
2023-03-06T01:02:35.105Z,64.63
2023-03-06T01:05:01.967Z,63.96
2023-03-06T01:07:28.643Z,66.09
2023-03-06T01:09:55.264Z,67.45
2023-03-06T01:12:24.195Z,64.99
2023-03-06T01:14:50.863Z,63.15
2023-03-06T01:17:17.839Z,62.78
2023-03-06T01:19:44.355Z,64.51
2023-03-06T01:22:10.899Z,63.71
2023-03-06T01:24:37.593Z,64.65
2023-03-06T01:27:04.206Z,67.08
2023-03-06T01:29:30.854Z,67.32
2023-03-06T01:31:57.498Z,68.64
2023-03-06T01:34:24.170Z,67.37
2023-03-06T01:36:50.741Z,64.57
2023-03-06T01:39:17.382Z,67.94
2023-03-06T01:41:44.044Z,69.28
2023-03-06T01:44:13.780Z,69.99
2023-03-06T01:46:44.635Z,70.60
2023-03-06T01:49:13.312Z,68.95
2023-03-06T01:51:54.399Z,67.42
2023-03-06T01:54:34.221Z,67.04
2023-03-06T01:57:05.685Z,65.37
2023-03-06T01:59:34.831Z,67.33
2023-03-06T02:02:03.766Z,66.28
2023-03-06T02:04:31.470Z,66.61
2023-03-06T02:07:01.202Z,68.59
2023-03-06T02:09:30.945Z,67.92
2023-03-06T02:11:57.903Z,66.93
2023-03-06T02:14:25.046Z,68.98
2023-03-06T02:16:51.666Z,68.09
2023-03-06T02:19:50.393Z,65.35
2023-03-06T02:22:16.928Z,65.48
2023-03-06T02:25:04.219Z,65.52
2023-03-06T02:27:31.104Z,67.19
2023-03-06T02:29:57.687Z,69.12
2023-03-06T02:32:24.349Z,70.13
2023-03-06T02:34:55.143Z,72.19
2023-03-06T02:37:23.769Z,73.53
2023-03-06T02:39:57.501Z,74.13
2023-03-06T02:42:26.678Z,70.65
2023-03-06T02:44:54.109Z,70.04
2023-03-06T02:47:21.690Z,71.30
2023-03-06T02:49:48.275Z,70.00
2023-03-06T02:52:14.865Z,70.18
2023-03-06T02:54:42.570Z,70.00
2023-03-06T02:57:09.261Z,72.56
2023-03-06T02:59:35.985Z,74.36
2023-03-06T03:02:02.693Z,73.58
2023-03-06T03:04:29.250Z,73.93
2023-03-06T03:06:55.890Z,73.38
2023-03-06T03:09:22.613Z,71.70
2023-03-06T03:11:51.213Z,70.10
2023-03-06T03:14:17.985Z,69.24
2023-03-06T03:16:45.457Z,68.16
2023-03-06T03:19:12.039Z,68.69
2023-03-06T03:21:40.938Z,69.01
2023-03-06T03:24:08.097Z,70.02
2023-03-06T03:26:34.668Z,70.26
2023-03-06T03:29:01.343Z,70.60
2023-03-06T03:31:27.904Z,71.38
2023-03-06T03:33:54.462Z,72.08
2023-03-06T03:36:21.175Z,71.82
2023-03-06T03:38:47.703Z,72.23
2023-03-06T03:41:14.385Z,72.30
2023-03-06T03:43:40.919Z,72.18
2023-03-06T03:46:07.539Z,70.86
2023-03-06T03:48:34.131Z,70.68
2023-03-06T03:51:12.122Z,69.95
2023-03-06T03:53:39.807Z,69.98
2023-03-06T03:56:07.077Z,70.40
2023-03-06T03:58:33.814Z,71.13
2023-03-06T04:01:01.174Z,70.66
2023-03-06T04:03:27.914Z,70.58
2023-03-06T04:05:56.557Z,70.10
2023-03-06T04:08:24.241Z,70.10
2023-03-06T04:10:51.949Z,69.58
2023-03-06T04:13:21.120Z,71.13
2023-03-06T04:15:50.194Z,72.69
2023-03-06T04:18:17.441Z,73.84
2023-03-06T04:20:45.173Z,73.93
2023-03-06T04:23:12.115Z,73.96
2023-03-06T04:25:38.833Z,73.32
2023-03-06T04:28:05.532Z,72.65
2023-03-06T04:30:32.381Z,74.70
2023-03-06T04:32:59.232Z,74.84
2023-03-06T04:35:26.292Z,74.94
2023-03-06T04:37:53.258Z,73.28
2023-03-06T04:40:23.216Z,73.34
2023-03-06T04:42:49.935Z,73.31
2023-03-06T04:45:16.698Z,72.99
2023-03-06T04:47:43.323Z,74.19
2023-03-06T04:50:11.273Z,73.82
2023-03-06T04:52:37.960Z,72.78
2023-03-06T04:55:08.681Z,73.66
2023-03-06T04:57:40.037Z,73.11
2023-03-06T05:00:10.313Z,72.94
2023-03-06T05:02:36.946Z,73.16
2023-03-06T05:05:04.054Z,72.82
2023-03-06T05:07:30.761Z,71.87
2023-03-06T05:09:57.313Z,72.45
2023-03-06T05:12:24.865Z,72.92
2023-03-06T05:14:51.482Z,72.12
2023-03-06T05:17:18.028Z,73.88
2023-03-06T05:19:44.608Z,72.99
2023-03-06T05:22:11.177Z,71.55
2023-03-06T05:24:38.054Z,74.41
2023-03-06T05:27:04.738Z,73.49
2023-03-06T05:29:31.241Z,72.37
2023-03-06T05:31:58.994Z,73.80
2023-03-06T05:34:25.653Z,72.85
2023-03-06T05:36:52.208Z,72.08
2023-03-06T05:39:18.770Z,71.15
2023-03-06T05:41:45.336Z,71.34
2023-03-06T05:44:11.954Z,71.41
2023-03-06T05:46:38.717Z,70.25
2023-03-06T05:49:05.322Z,69.51
2023-03-06T05:51:31.929Z,69.88
2023-03-06T05:53:58.547Z,69.52
2023-03-06T05:56:25.154Z,68.70
2023-03-06T05:58:51.815Z,68.10
2023-03-06T06:01:20.311Z,68.33
2023-03-06T06:03:47.529Z,67.17
2023-03-06T06:06:15.139Z,65.10
2023-03-06T06:08:41.884Z,64.54
2023-03-06T06:11:10.292Z,63.70
2023-03-06T06:13:38.568Z,65.06
2023-03-06T06:16:19.116Z,65.86
2023-03-06T06:18:45.807Z,66.32
2023-03-06T06:21:14.576Z,67.58
2023-03-06T06:23:41.625Z,67.76
2023-03-06T06:26:09.681Z,67.53
2023-03-06T06:28:36.462Z,67.44
2023-03-06T06:31:13.149Z,64.90
2023-03-06T06:33:40.942Z,64.06
2023-03-06T06:36:16.869Z,63.28
2023-03-06T06:38:43.935Z,64.62
2023-03-06T06:41:36.105Z,65.79
2023-03-06T06:43:59.114Z,64.74
2023-03-06T06:47:14.402Z,62.72
2023-03-06T06:49:13.574Z,61.98
2023-03-06T06:51:41.402Z,61.11
2023-03-06T06:54:08.465Z,61.38
2023-03-06T06:56:40.048Z,62.21
2023-03-06T06:59:16.018Z,63.03
2023-03-06T07:01:44.008Z,63.60
2023-03-06T07:04:14.299Z,63.55
2023-03-06T07:06:42.079Z,61.57
2023-03-06T07:09:09.193Z,62.18
2023-03-06T07:11:37.461Z,62.29
2023-03-06T07:14:04.266Z,62.39
2023-03-06T07:16:30.873Z,64.21
2023-03-06T07:18:57.517Z,64.35
2023-03-06T07:21:26.254Z,61.76
2023-03-06T07:23:54.297Z,61.71
2023-03-06T07:26:20.986Z,61.78
2023-03-06T07:28:53.043Z,61.66
2023-03-06T07:31:22.432Z,60.96
2023-03-06T07:33:54.158Z,58.55
2023-03-06T07:36:22.162Z,60.46
2023-03-06T07:38:48.795Z,58.38
2023-03-06T07:41:16.607Z,57.82
2023-03-06T07:43:45.539Z,59.70
2023-03-06T07:46:14.221Z,58.11
2023-03-06T07:48:42.888Z,58.53
2023-03-06T07:51:16.413Z,58.31
2023-03-06T07:53:43.531Z,58.48
2023-03-06T07:56:11.181Z,57.64
2023-03-06T07:58:40.850Z,56.76
2023-03-06T08:01:10.133Z,54.73
2023-03-06T08:03:37.559Z,54.07
2023-03-06T08:06:13.127Z,54.87
2023-03-06T08:08:41.239Z,54.86
2023-03-06T08:11:09.732Z,53.28
2023-03-06T08:13:36.853Z,51.81
2023-03-06T08:16:03.855Z,52.17
2023-03-06T08:18:30.863Z,54.82
2023-03-06T08:21:04.806Z,56.10
2023-03-06T08:23:31.964Z,53.86
2023-03-06T08:26:00.870Z,53.88
2023-03-06T08:28:28.610Z,52.67
2023-03-06T08:30:56.383Z,54.16
2023-03-06T08:33:23.858Z,55.31
2023-03-06T08:35:50.634Z,53.87
2023-03-06T08:38:17.293Z,54.18
2023-03-06T08:40:43.866Z,52.36
2023-03-06T08:43:14.398Z,56.91
2023-03-06T08:45:41.167Z,55.86
2023-03-06T08:48:07.930Z,52.03
2023-03-06T08:50:34.737Z,53.57
2023-03-06T08:53:01.392Z,55.08
2023-03-06T08:55:28.286Z,55.09
2023-03-06T08:57:55.007Z,54.50
2023-03-06T09:00:21.711Z,52.25
2023-03-06T09:02:48.462Z,53.36
2023-03-06T09:05:15.162Z,53.79
2023-03-06T09:07:41.693Z,51.54
2023-03-06T09:10:18.503Z,52.46
2023-03-06T09:12:50.664Z,50.08
2023-03-06T09:15:20.025Z,48.70
2023-03-06T09:17:47.550Z,50.77
2023-03-06T09:20:15.456Z,50.61
2023-03-06T09:22:42.680Z,50.78
2023-03-06T09:25:11.103Z,49.72
2023-03-06T09:27:37.724Z,50.03
2023-03-06T09:30:05.228Z,49.09
2023-03-06T09:32:31.826Z,48.32
2023-03-06T09:34:58.562Z,47.81
2023-03-06T09:37:25.229Z,48.13
2023-03-06T09:39:51.796Z,47.07
2023-03-06T09:42:23.853Z,48.45
2023-03-06T09:44:54.612Z,49.02
2023-03-06T09:47:52.093Z,49.74
2023-03-06T09:50:33.884Z,47.42
2023-03-06T09:53:23.096Z,46.82
2023-03-06T09:56:03.464Z,46.26
2023-03-06T09:58:34.325Z,44.05
2023-03-06T10:01:13.995Z,44.27
2023-03-06T10:04:05.412Z,42.88
2023-03-06T10:06:55.297Z,40.54
2023-03-06T10:09:28.190Z,40.60
2023-03-06T10:12:17.254Z,40.37
2023-03-06T10:14:48.963Z,39.17
2023-03-06T10:17:21.855Z,40.87
2023-03-06T10:19:49.396Z,39.70
2023-03-06T10:22:25.960Z,41.00
2023-03-06T10:25:22.905Z,39.47
2023-03-06T10:27:56.024Z,37.75
2023-03-06T10:30:26.529Z,37.93
2023-03-06T10:32:55.871Z,37.72
2023-03-06T10:35:30.355Z,38.44
2023-03-06T10:38:15.474Z,39.13
2023-03-06T10:40:53.006Z,37.23
2023-03-06T10:43:19.693Z,36.97
2023-03-06T10:45:51.636Z,37.45
2023-03-06T10:48:22.410Z,38.52
2023-03-06T10:50:49.159Z,37.98
2023-03-06T10:53:29.230Z,37.62
2023-03-06T10:56:00.651Z,37.13
2023-03-06T10:58:30.332Z,37.07
2023-03-06T11:01:00.971Z,36.57
2023-03-06T11:03:27.688Z,37.49
2023-03-06T11:06:06.208Z,37.28
2023-03-06T11:08:33.735Z,36.14
2023-03-06T11:11:12.097Z,36.84
2023-03-06T11:13:40.434Z,38.53
2023-03-06T11:16:18.918Z,36.79
2023-03-06T11:18:58.044Z,37.68
2023-03-06T11:21:32.690Z,36.50
2023-03-06T11:24:20.094Z,37.23
2023-03-06T11:26:53.545Z,36.25
2023-03-06T11:29:22.890Z,37.27
2023-03-06T11:31:52.901Z,35.62
2023-03-06T11:34:27.013Z,35.49
2023-03-06T11:36:58.809Z,35.55
2023-03-06T11:39:28.450Z,35.96
2023-03-06T11:42:18.722Z,35.41
2023-03-06T11:45:04.246Z,34.79
2023-03-06T11:47:41.900Z,35.79
2023-03-06T11:50:36.358Z,35.25
2023-03-06T11:53:06.858Z,36.42
2023-03-06T11:56:19.677Z,36.06
2023-03-06T11:59:14.196Z,36.31
2023-03-06T12:02:05.119Z,36.20
2023-03-06T12:04:55.761Z,36.21
2023-03-06T12:07:26.128Z,37.25
2023-03-06T12:10:25.695Z,36.65
2023-03-06T12:13:10.978Z,36.07
2023-03-06T12:16:04.298Z,36.37
2023-03-06T12:18:41.808Z,36.18
2023-03-06T12:21:26.753Z,36.09
2023-03-06T12:24:19.084Z,36.79
2023-03-06T12:26:48.608Z,36.89
2023-03-06T12:29:39.855Z,37.42
2023-03-06T12:32:37.403Z,37.25
2023-03-06T12:35:22.338Z,36.93
2023-03-06T12:38:08.192Z,38.13
2023-03-06T12:40:53.728Z,37.76
2023-03-06T12:43:35.403Z,37.52
2023-03-06T12:46:16.420Z,36.78
2023-03-06T12:48:48.531Z,36.74
2023-03-06T12:51:18.819Z,35.85
2023-03-06T12:53:45.741Z,35.83
2023-03-06T12:56:15.718Z,36.05
2023-03-06T12:58:53.938Z,35.77
2023-03-06T13:01:26.641Z,35.80
2023-03-06T13:04:17.985Z,35.06
2023-03-06T13:06:55.596Z,36.04
2023-03-06T13:09:31.209Z,36.33
2023-03-06T13:12:00.678Z,35.21
2023-03-06T13:14:34.331Z,34.79
2023-03-06T13:17:20.904Z,35.48
2023-03-06T13:19:48.684Z,35.10
2023-03-06T13:22:27.733Z,35.99
2023-03-06T13:25:19.030Z,37.58
2023-03-06T13:27:47.259Z,37.51
2023-03-06T13:30:42.517Z,38.82
2023-03-06T13:33:36.345Z,38.62
2023-03-06T13:36:26.480Z,40.38
2023-03-06T13:38:53.054Z,40.46
2023-03-06T13:41:22.468Z,40.39
2023-03-06T13:43:52.060Z,40.94
2023-03-06T13:46:28.417Z,41.94
2023-03-06T13:49:13.238Z,42.46
2023-03-06T13:51:49.106Z,43.82
2023-03-06T13:54:46.741Z,44.64
2023-03-06T13:57:42.430Z,44.75
2023-03-06T14:00:12.000Z,44.54
2023-03-06T14:03:03.708Z,44.02
2023-03-06T14:05:42.215Z,45.71
2023-03-06T14:08:20.686Z,44.71
2023-03-06T14:10:59.271Z,44.60
2023-03-06T14:13:41.629Z,45.72
2023-03-06T14:16:25.473Z,46.07
2023-03-06T14:18:55.311Z,46.00
2023-03-06T14:21:31.273Z,47.75
2023-03-06T14:24:02.968Z,48.70
2023-03-06T14:26:34.280Z,47.61
2023-03-06T14:29:02.428Z,47.53
2023-03-06T14:31:32.584Z,49.74
2023-03-06T14:34:01.871Z,48.06
2023-03-06T14:36:35.128Z,49.22
2023-03-06T14:39:33.116Z,48.50
2023-03-06T14:42:07.306Z,46.60
2023-03-06T14:44:34.066Z,46.88
2023-03-06T14:47:26.958Z,47.28
2023-03-06T14:50:18.431Z,47.45
2023-03-06T14:52:45.722Z,47.18
2023-03-06T14:55:19.026Z,46.47
2023-03-06T14:57:49.921Z,46.77
2023-03-06T15:00:21.460Z,47.99
2023-03-06T15:02:50.697Z,50.53
2023-03-06T15:05:29.933Z,51.32
2023-03-06T15:08:01.987Z,55.73
2023-03-06T15:10:31.432Z,57.21
2023-03-06T15:13:18.793Z,61.65
2023-03-06T15:15:57.742Z,65.44
2023-03-06T15:18:35.383Z,66.48
2023-03-06T15:21:19.971Z,72.13
2023-03-06T15:23:49.550Z,75.39
2023-03-06T15:26:33.695Z,75.88
2023-03-06T15:29:09.697Z,76.85
2023-03-06T15:31:40.844Z,77.69
2023-03-06T15:34:07.592Z,76.39
2023-03-06T15:36:36.990Z,79.05
2023-03-06T15:39:33.848Z,80.72
2023-03-06T15:42:16.117Z,79.83
2023-03-06T15:44:42.891Z,78.64
2023-03-06T15:47:11.785Z,78.88
2023-03-06T15:49:39.468Z,80.81
2023-03-06T15:52:09.626Z,81.04
2023-03-06T15:54:36.619Z,81.31
2023-03-06T15:57:05.584Z,82.31
2023-03-06T15:59:41.220Z,79.31
2023-03-06T16:02:15.894Z,78.83
2023-03-06T16:04:42.636Z,77.99
2023-03-06T16:07:09.274Z,79.79
2023-03-06T16:09:36.270Z,81.33
2023-03-06T16:12:03.136Z,80.82
2023-03-06T16:14:29.878Z,79.60
2023-03-06T16:16:57.504Z,78.54
2023-03-06T16:19:27.721Z,78.66
2023-03-06T16:21:56.573Z,81.42
2023-03-06T16:24:23.357Z,85.78
2023-03-06T16:26:51.943Z,85.72
2023-03-06T16:29:25.988Z,84.57
2023-03-06T16:31:52.684Z,87.15
2023-03-06T16:34:19.921Z,86.19
2023-03-06T16:36:54.978Z,89.01
2023-03-06T16:39:23.943Z,86.91
2023-03-06T16:41:51.490Z,83.64
2023-03-06T16:44:18.624Z,82.26
2023-03-06T16:46:47.980Z,83.47
2023-03-06T16:49:20.252Z,81.71
2023-03-06T16:51:47.022Z,82.16
2023-03-06T16:54:13.888Z,84.11
2023-03-06T16:56:41.599Z,86.80
2023-03-06T16:59:08.706Z,81.73
2023-03-06T17:01:35.402Z,80.34
2023-03-06T17:04:02.156Z,82.05
2023-03-06T17:06:30.405Z,84.14
2023-03-06T17:08:58.169Z,83.85
2023-03-06T17:11:29.966Z,83.31
2023-03-06T17:13:56.506Z,81.52
2023-03-06T17:16:23.072Z,81.01
2023-03-06T17:18:49.803Z,81.97
2023-03-06T17:21:16.724Z,82.25
2023-03-06T17:23:44.549Z,82.54
2023-03-06T17:26:18.170Z,83.23
2023-03-06T17:28:45.896Z,82.13
2023-03-06T17:31:19.508Z,81.14
2023-03-06T17:33:46.482Z,81.02
2023-03-06T17:36:14.597Z,82.62
2023-03-06T17:38:41.821Z,83.99
2023-03-06T17:41:10.059Z,83.26
2023-03-06T17:43:37.438Z,86.67
2023-03-06T17:46:06.148Z,84.19
2023-03-06T17:48:33.845Z,84.22
2023-03-06T17:51:00.615Z,82.57
2023-03-06T17:53:27.583Z,82.05
2023-03-06T17:55:55.240Z,81.04
2023-03-06T17:58:21.805Z,80.66
2023-03-06T18:00:48.545Z,80.96
2023-03-06T18:03:15.234Z,86.87
2023-03-06T18:05:41.848Z,84.76
2023-03-06T18:08:10.289Z,84.25
2023-03-06T18:10:41.385Z,84.50
2023-03-06T18:13:09.309Z,84.71
2023-03-06T18:15:40.348Z,84.62
2023-03-06T18:18:07.358Z,84.39
2023-03-06T18:20:34.474Z,82.50
2023-03-06T18:23:03.779Z,81.19
2023-03-06T18:25:33.751Z,84.58
2023-03-06T18:28:03.389Z,84.74
2023-03-06T18:30:29.939Z,84.71
2023-03-06T18:32:56.507Z,83.15
2023-03-06T18:35:23.107Z,82.54
2023-03-06T18:37:49.826Z,82.26
2023-03-06T18:40:16.614Z,82.10
2023-03-06T18:42:43.159Z,82.68
2023-03-06T18:45:11.126Z,82.76
2023-03-06T18:47:37.687Z,81.61
2023-03-06T18:50:04.550Z,83.61
2023-03-06T18:52:31.124Z,82.70
2023-03-06T18:54:57.668Z,83.00
2023-03-06T18:57:24.262Z,82.38
2023-03-06T18:59:50.942Z,82.55
2023-03-06T19:02:17.523Z,84.11
2023-03-06T19:04:44.076Z,84.48
2023-03-06T19:07:13.967Z,84.21
2023-03-06T19:09:40.852Z,83.14
2023-03-06T19:12:07.697Z,82.52
2023-03-06T19:14:36.305Z,84.93
2023-03-06T19:17:02.966Z,84.92
2023-03-06T19:19:29.540Z,82.29
2023-03-06T19:22:02.266Z,83.79
2023-03-06T19:24:28.887Z,83.02
2023-03-06T19:26:57.940Z,82.73
2023-03-06T19:29:25.598Z,82.89
2023-03-06T19:31:53.280Z,82.88
2023-03-06T19:34:21.127Z,85.35
2023-03-06T19:36:50.785Z,86.08
2023-03-06T19:39:17.443Z,84.41
2023-03-06T19:41:46.282Z,86.30
2023-03-06T19:44:13.190Z,86.11
2023-03-06T19:46:40.841Z,86.56
2023-03-06T19:49:12.107Z,84.59
2023-03-06T19:51:38.842Z,84.22
2023-03-06T19:54:05.546Z,84.25
2023-03-06T19:56:33.690Z,83.30
2023-03-06T19:59:00.401Z,82.64
2023-03-06T20:01:28.247Z,83.04
2023-03-06T20:03:59.634Z,83.58
2023-03-06T20:06:29.260Z,83.28
2023-03-06T20:08:55.906Z,82.42
2023-03-06T20:11:25.813Z,81.80
2023-03-06T20:13:52.378Z,83.67
2023-03-06T20:16:19.464Z,85.10
2023-03-06T20:18:46.023Z,83.24
2023-03-06T20:21:13.607Z,84.23
2023-03-06T20:23:40.890Z,84.77
2023-03-06T20:26:10.316Z,86.64
2023-03-06T20:28:39.254Z,87.67
2023-03-06T20:31:16.809Z,85.90
2023-03-06T20:33:45.529Z,83.68
2023-03-06T20:36:13.979Z,83.07
2023-03-06T20:38:40.665Z,83.61
2023-03-06T20:41:10.853Z,83.37
2023-03-06T20:43:37.376Z,82.98
2023-03-06T20:46:05.867Z,82.34
2023-03-06T20:48:32.582Z,83.61
2023-03-06T20:51:05.452Z,84.23
2023-03-06T20:53:34.657Z,83.35
2023-03-06T20:56:01.382Z,83.99
2023-03-06T20:58:30.184Z,83.83
2023-03-06T21:00:57.446Z,84.06
2023-03-06T21:03:24.654Z,83.35
2023-03-06T21:05:51.255Z,86.87
2023-03-06T21:08:17.986Z,84.50
2023-03-06T21:10:45.624Z,83.68
2023-03-06T21:13:12.348Z,84.52
2023-03-06T21:15:40.098Z,83.94
2023-03-06T21:18:06.765Z,83.21
2023-03-06T21:20:34.336Z,84.01
2023-03-06T21:23:04.106Z,83.37
2023-03-06T21:25:30.794Z,83.01
2023-03-06T21:27:58.832Z,82.26
2023-03-06T21:30:25.677Z,81.94
2023-03-06T21:32:52.686Z,83.00
2023-03-06T21:35:20.032Z,84.61
2023-03-06T21:37:47.170Z,86.36
2023-03-06T21:40:14.606Z,87.66
2023-03-06T21:42:41.629Z,88.97
2023-03-06T21:45:08.841Z,91.30
2023-03-06T21:47:38.832Z,88.43
2023-03-06T21:50:07.458Z,89.20
2023-03-06T21:52:34.107Z,90.00
2023-03-06T21:55:00.707Z,89.59
2023-03-06T21:57:27.267Z,89.62
2023-03-06T21:59:53.849Z,90.86
2023-03-06T22:02:20.655Z,95.54
2023-03-06T22:04:52.569Z,96.69
2023-03-06T22:07:20.340Z,95.56
2023-03-06T22:09:47.336Z,95.47
2023-03-06T22:12:13.976Z,94.83
2023-03-06T22:14:42.906Z,94.86
2023-03-06T22:17:09.458Z,92.51
2023-03-06T22:19:36.002Z,91.78
2023-03-06T22:22:03.936Z,92.49
2023-03-06T22:24:31.977Z,91.04
2023-03-06T22:26:58.635Z,92.48
2023-03-06T22:29:25.330Z,91.35
2023-03-06T22:31:52.797Z,90.73
2023-03-06T22:34:19.434Z,89.31
2023-03-06T22:36:46.010Z,89.93
2023-03-06T22:39:13.228Z,92.25
2023-03-06T22:41:40.235Z,90.27
2023-03-06T22:44:06.849Z,90.59
2023-03-06T22:46:33.819Z,92.60
2023-03-06T22:49:01.321Z,93.58
2023-03-06T22:51:29.597Z,91.37
2023-03-06T22:53:56.358Z,91.91
2023-03-06T22:56:23.179Z,91.75
2023-03-06T22:58:49.948Z,92.61
2023-03-06T23:01:21.961Z,89.62
2023-03-06T23:03:54.592Z,88.90
2023-03-06T23:06:36.449Z,88.22
2023-03-06T23:09:05.827Z,86.64
2023-03-06T23:11:32.912Z,86.73
2023-03-06T23:13:59.840Z,86.28
2023-03-06T23:16:26.523Z,85.96
2023-03-06T23:18:54.013Z,86.51
2023-03-06T23:21:21.912Z,86.11
2023-03-06T23:23:50.598Z,87.00
2023-03-06T23:26:18.702Z,87.68
2023-03-06T23:28:45.623Z,88.62
2023-03-06T23:31:18.248Z,87.32
2023-03-06T23:33:44.935Z,87.65
2023-03-06T23:36:14.697Z,86.62
2023-03-06T23:38:41.597Z,85.99
2023-03-06T23:41:18.118Z,88.93
2023-03-06T23:43:45.637Z,86.75
2023-03-06T23:46:12.841Z,85.13
2023-03-06T23:48:41.032Z,86.94
2023-03-06T23:51:17.772Z,88.59
2023-03-06T23:53:46.144Z,88.16
2023-03-06T23:56:13.527Z,86.03
2023-03-06T23:58:40.795Z,84.79
